sensor_id;sensor_type;location;lat;lon;timestamp;temperature;humidity
16515;DHT22;8370;52.556;7.970;2024-01-07T00:00:13;0.90;99.90
16515;DHT22;8370;52.556;7.970;2024-01-07T00:02:38;0.90;99.90
16515;DHT22;8370;52.556;7.970;2024-01-07T00:05:04;0.90;99.90
16515;DHT22;8370;52.556;7.970;2024-01-07T00:07:30;1.00;99.90
16515;DHT22;8370;52.556;7.970;2024-01-07T00:09:56;0.90;99.90
16515;DHT22;8370;52.556;7.970;2024-01-07T00:12:21;0.90;99.90
16515;DHT22;8370;52.556;7.970;2024-01-07T00:14:46;0.90;99.90
16515;DHT22;8370;52.556;7.970;2024-01-07T00:17:12;0.90;99.90
16515;DHT22;8370;52.556;7.970;2024-01-07T00:19:37;0.90;99.90
16515;DHT22;8370;52.556;7.970;2024-01-07T00:22:03;0.90;99.90
16515;DHT22;8370;52.556;7.970;2024-01-07T00:24:29;0.90;99.90
16515;DHT22;8370;52.556;7.970;2024-01-07T00:26:55;0.90;99.90
16515;DHT22;8370;52.556;7.970;2024-01-07T00:29:21;0.90;99.90
16515;DHT22;8370;52.556;7.970;2024-01-07T00:31:46;0.90;99.90
16515;DHT22;8370;52.556;7.970;2024-01-07T00:34:12;0.90;99.90
16515;DHT22;8370;52.556;7.970;2024-01-07T00:36:37;0.80;99.90
16515;DHT22;8370;52.556;7.970;2024-01-07T00:39:03;0.70;99.90
16515;DHT22;8370;52.556;7.970;2024-01-07T00:41:28;0.70;99.90
16515;DHT22;8370;52.556;7.970;2024-01-07T00:43:55;0.80;99.90
16515;DHT22;8370;52.556;7.970;2024-01-07T00:46:21;0.80;99.90
16515;DHT22;8370;52.556;7.970;2024-01-07T00:48:46;0.80;99.90
16515;DHT22;8370;52.556;7.970;2024-01-07T00:51:12;0.80;99.90
16515;DHT22;8370;52.556;7.970;2024-01-07T00:53:37;0.80;99.90
16515;DHT22;8370;52.556;7.970;2024-01-07T00:56:03;0.80;99.90
16515;DHT22;8370;52.556;7.970;2024-01-07T00:58:28;0.70;99.90
16515;DHT22;8370;52.556;7.970;2024-01-07T01:00:54;0.70;99.90
16515;DHT22;8370;52.556;7.970;2024-01-07T01:03:20;0.70;99.90
16515;DHT22;8370;52.556;7.970;2024-01-07T01:05:46;0.60;99.90
16515;DHT22;8370;52.556;7.970;2024-01-07T01:08:11;0.60;99.90
16515;DHT22;8370;52.556;7.970;2024-01-07T01:10:37;0.50;99.90
16515;DHT22;8370;52.556;7.970;2024-01-07T01:13:03;0.60;99.90
16515;DHT22;8370;52.556;7.970;2024-01-07T01:15:28;0.50;99.90
16515;DHT22;8370;52.556;7.970;2024-01-07T01:17:54;0.50;99.90
16515;DHT22;8370;52.556;7.970;2024-01-07T01:20:19;0.50;99.90
16515;DHT22;8370;52.556;7.970;2024-01-07T01:22:45;0.50;99.90
16515;DHT22;8370;52.556;7.970;2024-01-07T01:25:10;0.60;99.90
16515;DHT22;8370;52.556;7.970;2024-01-07T01:27:36;0.50;99.90
16515;DHT22;8370;52.556;7.970;2024-01-07T01:30:02;0.50;99.90
16515;DHT22;8370;52.556;7.970;2024-01-07T01:32:27;0.50;99.90
16515;DHT22;8370;52.556;7.970;2024-01-07T01:34:53;0.40;99.90
16515;DHT22;8370;52.556;7.970;2024-01-07T01:37:18;0.40;99.90
16515;DHT22;8370;52.556;7.970;2024-01-07T01:39:44;0.40;99.90
16515;DHT22;8370;52.556;7.970;2024-01-07T01:42:09;0.40;99.90
16515;DHT22;8370;52.556;7.970;2024-01-07T01:44:35;0.40;99.90
16515;DHT22;8370;52.556;7.970;2024-01-07T01:47:00;0.40;99.90
16515;DHT22;8370;52.556;7.970;2024-01-07T01:49:27;0.50;99.90
16515;DHT22;8370;52.556;7.970;2024-01-07T01:51:53;0.40;99.90
16515;DHT22;8370;52.556;7.970;2024-01-07T01:54:19;0.40;99.90
16515;DHT22;8370;52.556;7.970;2024-01-07T01:56:46;0.50;99.90
16515;DHT22;8370;52.556;7.970;2024-01-07T01:59:14;0.50;99.90
16515;DHT22;8370;52.556;7.970;2024-01-07T02:01:40;0.50;99.90
16515;DHT22;8370;52.556;7.970;2024-01-07T02:04:06;0.50;99.90
16515;DHT22;8370;52.556;7.970;2024-01-07T02:06:32;0.60;99.90
16515;DHT22;8370;52.556;7.970;2024-01-07T02:08:58;0.60;99.90
16515;DHT22;8370;52.556;7.970;2024-01-07T02:11:23;0.50;99.90
16515;DHT22;8370;52.556;7.970;2024-01-07T02:13:49;0.50;99.90
16515;DHT22;8370;52.556;7.970;2024-01-07T02:16:15;0.50;99.90
16515;DHT22;8370;52.556;7.970;2024-01-07T02:18:42;0.50;99.90
16515;DHT22;8370;52.556;7.970;2024-01-07T02:21:10;0.40;99.90
16515;DHT22;8370;52.556;7.970;2024-01-07T02:23:35;0.40;99.90
16515;DHT22;8370;52.556;7.970;2024-01-07T02:26:01;0.50;99.90
16515;DHT22;8370;52.556;7.970;2024-01-07T02:28:27;0.40;99.90
16515;DHT22;8370;52.556;7.970;2024-01-07T02:30:52;0.40;99.90
16515;DHT22;8370;52.556;7.970;2024-01-07T02:33:18;0.50;99.90
16515;DHT22;8370;52.556;7.970;2024-01-07T02:35:43;0.40;99.90
16515;DHT22;8370;52.556;7.970;2024-01-07T02:38:09;0.40;99.90
16515;DHT22;8370;52.556;7.970;2024-01-07T02:40:34;0.40;99.90
16515;DHT22;8370;52.556;7.970;2024-01-07T02:43:00;0.40;99.90
16515;DHT22;8370;52.556;7.970;2024-01-07T02:45:25;0.40;99.90
16515;DHT22;8370;52.556;7.970;2024-01-07T02:47:51;0.40;99.90
16515;DHT22;8370;52.556;7.970;2024-01-07T02:50:16;0.40;99.90
16515;DHT22;8370;52.556;7.970;2024-01-07T02:52:42;0.40;99.90
16515;DHT22;8370;52.556;7.970;2024-01-07T02:55:08;0.40;99.90
16515;DHT22;8370;52.556;7.970;2024-01-07T02:57:33;0.40;99.90
16515;DHT22;8370;52.556;7.970;2024-01-07T02:59:59;0.50;99.90
16515;DHT22;8370;52.556;7.970;2024-01-07T03:02:24;0.40;99.90
16515;DHT22;8370;52.556;7.970;2024-01-07T03:04:50;0.30;99.90
16515;DHT22;8370;52.556;7.970;2024-01-07T03:07:15;0.30;99.90
16515;DHT22;8370;52.556;7.970;2024-01-07T03:09:41;0.30;99.90
16515;DHT22;8370;52.556;7.970;2024-01-07T03:12:06;0.30;99.90
16515;DHT22;8370;52.556;7.970;2024-01-07T03:14:32;0.30;99.90
16515;DHT22;8370;52.556;7.970;2024-01-07T03:16:57;0.30;99.90
16515;DHT22;8370;52.556;7.970;2024-01-07T03:19:23;0.30;99.90
16515;DHT22;8370;52.556;7.970;2024-01-07T03:21:49;0.20;99.90
16515;DHT22;8370;52.556;7.970;2024-01-07T03:24:14;0.20;99.90
16515;DHT22;8370;52.556;7.970;2024-01-07T03:26:40;0.10;99.90
16515;DHT22;8370;52.556;7.970;2024-01-07T03:29:05;0.10;99.90
16515;DHT22;8370;52.556;7.970;2024-01-07T03:31:31;0.20;99.90
16515;DHT22;8370;52.556;7.970;2024-01-07T03:33:56;0.10;99.90
16515;DHT22;8370;52.556;7.970;2024-01-07T03:36:22;0.10;99.90
16515;DHT22;8370;52.556;7.970;2024-01-07T03:38:48;0.20;99.90
16515;DHT22;8370;52.556;7.970;2024-01-07T03:41:17;0.20;99.90
16515;DHT22;8370;52.556;7.970;2024-01-07T03:43:49;0.20;99.90
16515;DHT22;8370;52.556;7.970;2024-01-07T03:46:16;0.10;99.90
16515;DHT22;8370;52.556;7.970;2024-01-07T03:48:42;0.20;99.90
16515;DHT22;8370;52.556;7.970;2024-01-07T03:51:08;0.20;99.90
16515;DHT22;8370;52.556;7.970;2024-01-07T03:53:33;0.10;99.90
16515;DHT22;8370;52.556;7.970;2024-01-07T03:55:59;0.10;99.90
16515;DHT22;8370;52.556;7.970;2024-01-07T03:58:24;0.10;99.90
16515;DHT22;8370;52.556;7.970;2024-01-07T04:00:50;0.10;99.90
16515;DHT22;8370;52.556;7.970;2024-01-07T04:03:15;0.20;99.90
16515;DHT22;8370;52.556;7.970;2024-01-07T04:05:41;0.20;99.90
16515;DHT22;8370;52.556;7.970;2024-01-07T04:08:09;0.20;99.90
16515;DHT22;8370;52.556;7.970;2024-01-07T04:10:34;0.10;99.90
16515;DHT22;8370;52.556;7.970;2024-01-07T04:13:00;0.10;99.90
16515;DHT22;8370;52.556;7.970;2024-01-07T04:15:26;0.10;99.90
16515;DHT22;8370;52.556;7.970;2024-01-07T04:17:52;0.10;99.90
16515;DHT22;8370;52.556;7.970;2024-01-07T04:20:18;0.00;99.90
16515;DHT22;8370;52.556;7.970;2024-01-07T04:22:43;0.10;99.90
16515;DHT22;8370;52.556;7.970;2024-01-07T04:25:08;0.10;99.90
16515;DHT22;8370;52.556;7.970;2024-01-07T04:27:35;0.10;99.90
16515;DHT22;8370;52.556;7.970;2024-01-07T04:30:01;0.10;99.90
16515;DHT22;8370;52.556;7.970;2024-01-07T04:32:27;0.00;99.90
16515;DHT22;8370;52.556;7.970;2024-01-07T04:34:53;0.00;99.90
16515;DHT22;8370;52.556;7.970;2024-01-07T04:37:18;0.00;99.90
16515;DHT22;8370;52.556;7.970;2024-01-07T04:39:44;-0.10;99.90
16515;DHT22;8370;52.556;7.970;2024-01-07T04:42:09;-0.10;99.90
16515;DHT22;8370;52.556;7.970;2024-01-07T04:44:35;-0.10;99.90
16515;DHT22;8370;52.556;7.970;2024-01-07T04:47:00;-0.10;99.90
16515;DHT22;8370;52.556;7.970;2024-01-07T04:49:25;-0.10;99.90
16515;DHT22;8370;52.556;7.970;2024-01-07T04:51:51;-0.10;99.90
16515;DHT22;8370;52.556;7.970;2024-01-07T04:54:17;-0.10;99.90
16515;DHT22;8370;52.556;7.970;2024-01-07T04:56:44;-0.10;99.90
16515;DHT22;8370;52.556;7.970;2024-01-07T04:59:09;-0.10;99.90
16515;DHT22;8370;52.556;7.970;2024-01-07T05:01:35;-0.10;99.90
16515;DHT22;8370;52.556;7.970;2024-01-07T05:04:01;-0.10;99.90
16515;DHT22;8370;52.556;7.970;2024-01-07T05:06:27;-0.10;99.90
16515;DHT22;8370;52.556;7.970;2024-01-07T05:08:52;-0.10;99.90
16515;DHT22;8370;52.556;7.970;2024-01-07T05:11:18;0.00;99.90
16515;DHT22;8370;52.556;7.970;2024-01-07T05:13:43;-0.10;99.90
16515;DHT22;8370;52.556;7.970;2024-01-07T05:16:09;-0.10;99.90
16515;DHT22;8370;52.556;7.970;2024-01-07T05:18:42;-0.10;99.90
16515;DHT22;8370;52.556;7.970;2024-01-07T05:21:18;-0.10;99.90
16515;DHT22;8370;52.556;7.970;2024-01-07T05:23:43;-0.20;99.90
16515;DHT22;8370;52.556;7.970;2024-01-07T05:26:09;-0.10;99.90
16515;DHT22;8370;52.556;7.970;2024-01-07T05:28:36;-0.10;99.90
16515;DHT22;8370;52.556;7.970;2024-01-07T05:31:02;0.00;99.90
16515;DHT22;8370;52.556;7.970;2024-01-07T05:33:27;0.00;99.90
16515;DHT22;8370;52.556;7.970;2024-01-07T05:35:53;0.00;99.90
16515;DHT22;8370;52.556;7.970;2024-01-07T05:38:18;0.00;99.90
16515;DHT22;8370;52.556;7.970;2024-01-07T05:40:44;-0.10;99.90
16515;DHT22;8370;52.556;7.970;2024-01-07T05:43:09;-0.10;99.90
16515;DHT22;8370;52.556;7.970;2024-01-07T05:45:35;-0.10;99.90
16515;DHT22;8370;52.556;7.970;2024-01-07T05:48:00;-0.20;99.90
16515;DHT22;8370;52.556;7.970;2024-01-07T05:50:26;-0.20;99.90
16515;DHT22;8370;52.556;7.970;2024-01-07T05:52:51;-0.20;99.90
16515;DHT22;8370;52.556;7.970;2024-01-07T05:55:16;-0.20;99.90
16515;DHT22;8370;52.556;7.970;2024-01-07T05:57:43;-0.20;99.90
16515;DHT22;8370;52.556;7.970;2024-01-07T06:00:09;-0.20;99.90
16515;DHT22;8370;52.556;7.970;2024-01-07T06:02:36;-0.20;99.90
16515;DHT22;8370;52.556;7.970;2024-01-07T06:05:02;-0.20;99.90
16515;DHT22;8370;52.556;7.970;2024-01-07T06:07:28;-0.20;99.90
16515;DHT22;8370;52.556;7.970;2024-01-07T06:09:53;-0.20;99.90
16515;DHT22;8370;52.556;7.970;2024-01-07T06:12:19;-0.20;99.90
16515;DHT22;8370;52.556;7.970;2024-01-07T06:14:45;-0.20;99.90
16515;DHT22;8370;52.556;7.970;2024-01-07T06:17:10;-0.20;99.90
16515;DHT22;8370;52.556;7.970;2024-01-07T06:19:36;-0.30;99.90
16515;DHT22;8370;52.556;7.970;2024-01-07T06:22:01;-0.20;99.90
16515;DHT22;8370;52.556;7.970;2024-01-07T06:24:27;-0.20;99.90
16515;DHT22;8370;52.556;7.970;2024-01-07T06:26:52;-0.10;99.90
16515;DHT22;8370;52.556;7.970;2024-01-07T06:29:18;-0.10;99.90
16515;DHT22;8370;52.556;7.970;2024-01-07T06:31:44;-0.10;99.90
16515;DHT22;8370;52.556;7.970;2024-01-07T06:34:14;-0.10;99.90
16515;DHT22;8370;52.556;7.970;2024-01-07T06:36:40;-0.30;99.90
16515;DHT22;8370;52.556;7.970;2024-01-07T06:39:09;-0.30;99.90
16515;DHT22;8370;52.556;7.970;2024-01-07T06:41:35;-0.20;99.90
16515;DHT22;8370;52.556;7.970;2024-01-07T06:44:01;-0.20;99.90
16515;DHT22;8370;52.556;7.970;2024-01-07T06:46:26;-0.20;99.90
16515;DHT22;8370;52.556;7.970;2024-01-07T06:48:52;-0.20;99.90
16515;DHT22;8370;52.556;7.970;2024-01-07T06:51:18;-0.20;99.90
16515;DHT22;8370;52.556;7.970;2024-01-07T06:53:43;-0.20;99.90
16515;DHT22;8370;52.556;7.970;2024-01-07T06:56:09;-0.30;99.90
16515;DHT22;8370;52.556;7.970;2024-01-07T06:58:34;-0.20;99.90
16515;DHT22;8370;52.556;7.970;2024-01-07T07:01:00;-0.20;99.90
16515;DHT22;8370;52.556;7.970;2024-01-07T07:03:25;-0.20;99.90
16515;DHT22;8370;52.556;7.970;2024-01-07T07:05:51;-0.20;99.90
16515;DHT22;8370;52.556;7.970;2024-01-07T07:08:16;-0.20;99.90
16515;DHT22;8370;52.556;7.970;2024-01-07T07:10:42;-0.20;99.90
16515;DHT22;8370;52.556;7.970;2024-01-07T07:13:07;-0.30;99.90
16515;DHT22;8370;52.556;7.970;2024-01-07T07:15:34;-0.30;99.90
16515;DHT22;8370;52.556;7.970;2024-01-07T07:17:59;-0.30;99.90
16515;DHT22;8370;52.556;7.970;2024-01-07T07:20:25;-0.20;99.90
16515;DHT22;8370;52.556;7.970;2024-01-07T07:22:50;-0.20;99.90
16515;DHT22;8370;52.556;7.970;2024-01-07T07:25:16;-0.20;99.90
16515;DHT22;8370;52.556;7.970;2024-01-07T07:27:41;-0.20;99.90
16515;DHT22;8370;52.556;7.970;2024-01-07T07:30:07;-0.20;99.90
16515;DHT22;8370;52.556;7.970;2024-01-07T07:32:33;-0.20;99.90
16515;DHT22;8370;52.556;7.970;2024-01-07T07:34:59;-0.20;99.90
16515;DHT22;8370;52.556;7.970;2024-01-07T07:37:24;-0.20;99.90
16515;DHT22;8370;52.556;7.970;2024-01-07T07:39:50;-0.20;99.90
16515;DHT22;8370;52.556;7.970;2024-01-07T07:42:16;-0.10;99.90
16515;DHT22;8370;52.556;7.970;2024-01-07T07:44:42;-0.20;99.90
16515;DHT22;8370;52.556;7.970;2024-01-07T07:47:07;-0.20;99.90
16515;DHT22;8370;52.556;7.970;2024-01-07T07:49:33;-0.30;99.90
16515;DHT22;8370;52.556;7.970;2024-01-07T07:52:00;-0.30;99.90
16515;DHT22;8370;52.556;7.970;2024-01-07T07:54:26;-0.40;99.90
16515;DHT22;8370;52.556;7.970;2024-01-07T07:56:51;-0.40;99.90
16515;DHT22;8370;52.556;7.970;2024-01-07T07:59:17;-0.50;99.90
16515;DHT22;8370;52.556;7.970;2024-01-07T08:01:42;-0.60;99.90
16515;DHT22;8370;52.556;7.970;2024-01-07T08:04:08;-0.60;99.90
16515;DHT22;8370;52.556;7.970;2024-01-07T08:06:35;-0.60;99.90
16515;DHT22;8370;52.556;7.970;2024-01-07T08:09:00;-0.60;99.90
16515;DHT22;8370;52.556;7.970;2024-01-07T08:11:26;-0.60;99.90
16515;DHT22;8370;52.556;7.970;2024-01-07T08:13:51;-0.70;99.90
16515;DHT22;8370;52.556;7.970;2024-01-07T08:16:17;-0.70;99.90
16515;DHT22;8370;52.556;7.970;2024-01-07T08:18:43;-0.70;99.90
16515;DHT22;8370;52.556;7.970;2024-01-07T08:21:09;-0.70;99.90
16515;DHT22;8370;52.556;7.970;2024-01-07T08:23:35;-0.80;99.90
16515;DHT22;8370;52.556;7.970;2024-01-07T08:26:01;-0.80;99.90
16515;DHT22;8370;52.556;7.970;2024-01-07T08:28:27;-0.80;99.90
16515;DHT22;8370;52.556;7.970;2024-01-07T08:30:53;-0.80;99.90
16515;DHT22;8370;52.556;7.970;2024-01-07T08:33:19;-0.80;99.90
16515;DHT22;8370;52.556;7.970;2024-01-07T08:35:44;-0.80;99.90
16515;DHT22;8370;52.556;7.970;2024-01-07T08:38:10;-0.70;99.90
16515;DHT22;8370;52.556;7.970;2024-01-07T08:40:35;-0.70;99.90
16515;DHT22;8370;52.556;7.970;2024-01-07T08:43:02;-0.70;99.90
16515;DHT22;8370;52.556;7.970;2024-01-07T08:45:27;-0.70;99.90
16515;DHT22;8370;52.556;7.970;2024-01-07T08:47:53;-0.70;99.90
16515;DHT22;8370;52.556;7.970;2024-01-07T08:50:18;-0.70;99.90
16515;DHT22;8370;52.556;7.970;2024-01-07T08:52:44;-0.60;99.90
16515;DHT22;8370;52.556;7.970;2024-01-07T08:55:09;-0.70;99.90
16515;DHT22;8370;52.556;7.970;2024-01-07T08:57:36;-0.60;99.90
16515;DHT22;8370;52.556;7.970;2024-01-07T09:00:02;-0.60;99.90
16515;DHT22;8370;52.556;7.970;2024-01-07T09:02:28;-0.50;99.90
16515;DHT22;8370;52.556;7.970;2024-01-07T09:04:53;-0.50;99.90
16515;DHT22;8370;52.556;7.970;2024-01-07T09:07:18;-0.50;99.90
16515;DHT22;8370;52.556;7.970;2024-01-07T09:09:45;-0.40;99.90
16515;DHT22;8370;52.556;7.970;2024-01-07T09:12:10;-0.40;99.90
16515;DHT22;8370;52.556;7.970;2024-01-07T09:14:37;-0.30;99.90
16515;DHT22;8370;52.556;7.970;2024-01-07T09:17:03;-0.30;99.90
16515;DHT22;8370;52.556;7.970;2024-01-07T09:19:28;-0.30;99.90
16515;DHT22;8370;52.556;7.970;2024-01-07T09:21:54;-0.20;99.90
16515;DHT22;8370;52.556;7.970;2024-01-07T09:24:19;-0.20;99.90
16515;DHT22;8370;52.556;7.970;2024-01-07T09:26:45;-0.20;99.90
16515;DHT22;8370;52.556;7.970;2024-01-07T09:29:11;-0.20;99.90
16515;DHT22;8370;52.556;7.970;2024-01-07T09:31:37;-0.20;99.90
16515;DHT22;8370;52.556;7.970;2024-01-07T09:34:02;-0.20;99.90
16515;DHT22;8370;52.556;7.970;2024-01-07T09:36:29;-0.10;99.90
16515;DHT22;8370;52.556;7.970;2024-01-07T09:38:55;-0.10;99.90
16515;DHT22;8370;52.556;7.970;2024-01-07T09:41:20;0.00;99.90
16515;DHT22;8370;52.556;7.970;2024-01-07T09:43:46;0.00;99.90
16515;DHT22;8370;52.556;7.970;2024-01-07T09:46:13;0.10;99.90
16515;DHT22;8370;52.556;7.970;2024-01-07T09:48:39;0.20;99.90
16515;DHT22;8370;52.556;7.970;2024-01-07T09:51:06;0.20;99.90
16515;DHT22;8370;52.556;7.970;2024-01-07T09:53:35;0.30;99.90
16515;DHT22;8370;52.556;7.970;2024-01-07T09:56:19;0.30;99.90
16515;DHT22;8370;52.556;7.970;2024-01-07T09:58:47;0.40;99.90
16515;DHT22;8370;52.556;7.970;2024-01-07T10:01:17;0.40;99.90
16515;DHT22;8370;52.556;7.970;2024-01-07T10:03:42;0.50;99.90
16515;DHT22;8370;52.556;7.970;2024-01-07T10:06:10;0.50;99.90
16515;DHT22;8370;52.556;7.970;2024-01-07T10:08:35;0.50;99.90
16515;DHT22;8370;52.556;7.970;2024-01-07T10:11:01;0.50;99.90
16515;DHT22;8370;52.556;7.970;2024-01-07T10:13:27;0.60;99.90
16515;DHT22;8370;52.556;7.970;2024-01-07T10:15:54;0.60;99.90
16515;DHT22;8370;52.556;7.970;2024-01-07T10:18:20;0.60;99.90
16515;DHT22;8370;52.556;7.970;2024-01-07T10:20:45;0.60;99.90
16515;DHT22;8370;52.556;7.970;2024-01-07T10:23:11;0.70;99.90
16515;DHT22;8370;52.556;7.970;2024-01-07T10:25:37;0.70;99.90
16515;DHT22;8370;52.556;7.970;2024-01-07T10:28:03;0.70;99.90
16515;DHT22;8370;52.556;7.970;2024-01-07T10:30:29;0.80;99.90
16515;DHT22;8370;52.556;7.970;2024-01-07T10:32:58;0.70;99.90
16515;DHT22;8370;52.556;7.970;2024-01-07T10:35:33;0.70;99.90
16515;DHT22;8370;52.556;7.970;2024-01-07T10:38:00;0.80;99.90
16515;DHT22;8370;52.556;7.970;2024-01-07T10:40:27;0.80;99.90
16515;DHT22;8370;52.556;7.970;2024-01-07T10:42:54;0.90;99.90
16515;DHT22;8370;52.556;7.970;2024-01-07T10:45:20;1.00;99.90
16515;DHT22;8370;52.556;7.970;2024-01-07T10:47:49;1.00;99.90
16515;DHT22;8370;52.556;7.970;2024-01-07T10:50:16;1.00;99.90
16515;DHT22;8370;52.556;7.970;2024-01-07T10:52:43;1.00;99.90
16515;DHT22;8370;52.556;7.970;2024-01-07T10:55:13;1.00;99.90
16515;DHT22;8370;52.556;7.970;2024-01-07T10:57:44;1.00;99.90
16515;DHT22;8370;52.556;7.970;2024-01-07T11:00:13;1.00;99.90
16515;DHT22;8370;52.556;7.970;2024-01-07T11:03:07;1.00;99.90
16515;DHT22;8370;52.556;7.970;2024-01-07T11:08:34;1.10;99.90
16515;DHT22;8370;52.556;7.970;2024-01-07T11:11:18;1.10;99.90
16515;DHT22;8370;52.556;7.970;2024-01-07T11:13:48;1.10;99.90
16515;DHT22;8370;52.556;7.970;2024-01-07T11:16:40;1.10;99.90
16515;DHT22;8370;52.556;7.970;2024-01-07T11:19:06;1.20;99.90
16515;DHT22;8370;52.556;7.970;2024-01-07T11:21:31;1.20;99.90
16515;DHT22;8370;52.556;7.970;2024-01-07T11:23:57;1.30;99.90
16515;DHT22;8370;52.556;7.970;2024-01-07T11:26:22;1.30;99.90
16515;DHT22;8370;52.556;7.970;2024-01-07T11:28:54;1.30;99.90
16515;DHT22;8370;52.556;7.970;2024-01-07T11:34:06;1.30;99.90
16515;DHT22;8370;52.556;7.970;2024-01-07T11:36:35;1.30;99.90
16515;DHT22;8370;52.556;7.970;2024-01-07T11:39:01;1.40;99.90
16515;DHT22;8370;52.556;7.970;2024-01-07T11:41:33;1.40;99.90
16515;DHT22;8370;52.556;7.970;2024-01-07T11:43:59;1.40;99.90
16515;DHT22;8370;52.556;7.970;2024-01-07T11:46:29;1.50;99.90
16515;DHT22;8370;52.556;7.970;2024-01-07T11:48:57;1.50;99.90
16515;DHT22;8370;52.556;7.970;2024-01-07T11:51:28;1.50;99.90
16515;DHT22;8370;52.556;7.970;2024-01-07T11:53:54;1.50;99.90
16515;DHT22;8370;52.556;7.970;2024-01-07T11:56:20;1.60;99.90
16515;DHT22;8370;52.556;7.970;2024-01-07T11:58:45;1.60;99.90
16515;DHT22;8370;52.556;7.970;2024-01-07T12:01:11;1.70;99.90
16515;DHT22;8370;52.556;7.970;2024-01-07T12:03:37;1.80;99.90
16515;DHT22;8370;52.556;7.970;2024-01-07T12:06:03;1.80;99.90
16515;DHT22;8370;52.556;7.970;2024-01-07T12:08:30;1.90;99.90
16515;DHT22;8370;52.556;7.970;2024-01-07T12:10:56;1.90;99.90
16515;DHT22;8370;52.556;7.970;2024-01-07T12:13:21;1.80;99.90
16515;DHT22;8370;52.556;7.970;2024-01-07T12:15:47;1.90;99.90
16515;DHT22;8370;52.556;7.970;2024-01-07T12:18:14;2.10;99.90
16515;DHT22;8370;52.556;7.970;2024-01-07T12:20:40;2.40;99.90
16515;DHT22;8370;52.556;7.970;2024-01-07T12:23:09;2.70;99.90
16515;DHT22;8370;52.556;7.970;2024-01-07T12:25:35;3.30;99.90
16515;DHT22;8370;52.556;7.970;2024-01-07T12:28:01;3.90;99.90
16515;DHT22;8370;52.556;7.970;2024-01-07T12:30:27;4.60;99.90
16515;DHT22;8370;52.556;7.970;2024-01-07T12:32:53;5.30;99.90
16515;DHT22;8370;52.556;7.970;2024-01-07T12:35:18;6.00;99.90
16515;DHT22;8370;52.556;7.970;2024-01-07T12:37:44;6.70;99.90
16515;DHT22;8370;52.556;7.970;2024-01-07T12:40:11;7.20;99.90
16515;DHT22;8370;52.556;7.970;2024-01-07T12:42:38;7.30;99.90
16515;DHT22;8370;52.556;7.970;2024-01-07T12:45:06;7.40;99.90
16515;DHT22;8370;52.556;7.970;2024-01-07T12:47:31;8.10;99.90
16515;DHT22;8370;52.556;7.970;2024-01-07T12:49:57;8.70;99.90
16515;DHT22;8370;52.556;7.970;2024-01-07T12:52:23;9.10;99.90
16515;DHT22;8370;52.556;7.970;2024-01-07T12:54:49;9.00;99.90
16515;DHT22;8370;52.556;7.970;2024-01-07T12:57:14;9.30;99.90
16515;DHT22;8370;52.556;7.970;2024-01-07T12:59:40;9.00;99.90
16515;DHT22;8370;52.556;7.970;2024-01-07T13:02:05;9.00;99.90
16515;DHT22;8370;52.556;7.970;2024-01-07T13:04:31;8.80;99.90
16515;DHT22;8370;52.556;7.970;2024-01-07T13:06:56;8.50;99.90
16515;DHT22;8370;52.556;7.970;2024-01-07T13:09:22;8.40;99.90
16515;DHT22;8370;52.556;7.970;2024-01-07T13:11:47;8.70;99.90
16515;DHT22;8370;52.556;7.970;2024-01-07T13:14:13;9.10;99.90
16515;DHT22;8370;52.556;7.970;2024-01-07T13:16:38;9.10;99.90
16515;DHT22;8370;52.556;7.970;2024-01-07T13:19:04;8.80;99.90
16515;DHT22;8370;52.556;7.970;2024-01-07T13:21:29;8.60;99.90
16515;DHT22;8370;52.556;7.970;2024-01-07T13:23:55;8.50;99.90
16515;DHT22;8370;52.556;7.970;2024-01-07T13:26:22;8.50;99.90
16515;DHT22;8370;52.556;7.970;2024-01-07T13:28:48;8.60;99.90
16515;DHT22;8370;52.556;7.970;2024-01-07T13:31:13;8.50;99.90
16515;DHT22;8370;52.556;7.970;2024-01-07T13:33:40;8.40;99.90
16515;DHT22;8370;52.556;7.970;2024-01-07T13:36:05;8.10;99.90
16515;DHT22;8370;52.556;7.970;2024-01-07T13:38:35;7.70;99.90
16515;DHT22;8370;52.556;7.970;2024-01-07T13:41:01;7.10;99.90
16515;DHT22;8370;52.556;7.970;2024-01-07T13:43:26;6.70;99.90
16515;DHT22;8370;52.556;7.970;2024-01-07T13:45:55;6.60;99.90
16515;DHT22;8370;52.556;7.970;2024-01-07T13:48:20;6.60;99.90
16515;DHT22;8370;52.556;7.970;2024-01-07T13:50:46;6.60;99.90
16515;DHT22;8370;52.556;7.970;2024-01-07T13:53:13;6.50;99.90
16515;DHT22;8370;52.556;7.970;2024-01-07T13:55:38;6.30;99.90
16515;DHT22;8370;52.556;7.970;2024-01-07T13:58:04;6.10;99.90
16515;DHT22;8370;52.556;7.970;2024-01-07T14:00:29;5.70;99.90
16515;DHT22;8370;52.556;7.970;2024-01-07T14:02:56;5.30;99.90
16515;DHT22;8370;52.556;7.970;2024-01-07T14:05:21;4.70;99.90
16515;DHT22;8370;52.556;7.970;2024-01-07T14:07:47;4.00;99.90
16515;DHT22;8370;52.556;7.970;2024-01-07T14:10:12;3.50;99.90
16515;DHT22;8370;52.556;7.970;2024-01-07T14:12:38;3.10;99.90
16515;DHT22;8370;52.556;7.970;2024-01-07T14:15:04;2.80;99.90
16515;DHT22;8370;52.556;7.970;2024-01-07T14:17:29;2.60;99.90
16515;DHT22;8370;52.556;7.970;2024-01-07T14:19:55;2.40;99.90
16515;DHT22;8370;52.556;7.970;2024-01-07T14:22:21;2.20;99.90
16515;DHT22;8370;52.556;7.970;2024-01-07T14:24:47;2.00;99.90
16515;DHT22;8370;52.556;7.970;2024-01-07T14:27:16;1.80;99.90
16515;DHT22;8370;52.556;7.970;2024-01-07T14:29:42;1.70;99.90
16515;DHT22;8370;52.556;7.970;2024-01-07T14:32:08;1.60;99.90
16515;DHT22;8370;52.556;7.970;2024-01-07T14:34:34;1.50;99.90
16515;DHT22;8370;52.556;7.970;2024-01-07T14:36:59;1.50;99.90
16515;DHT22;8370;52.556;7.970;2024-01-07T14:39:26;1.40;99.90
16515;DHT22;8370;52.556;7.970;2024-01-07T14:41:51;1.40;99.90
16515;DHT22;8370;52.556;7.970;2024-01-07T14:44:17;1.30;99.90
16515;DHT22;8370;52.556;7.970;2024-01-07T14:46:43;1.20;99.90
16515;DHT22;8370;52.556;7.970;2024-01-07T14:49:08;1.20;99.90
16515;DHT22;8370;52.556;7.970;2024-01-07T14:51:34;1.10;99.90
16515;DHT22;8370;52.556;7.970;2024-01-07T14:53:59;1.10;99.90
16515;DHT22;8370;52.556;7.970;2024-01-07T14:56:25;1.00;99.90
16515;DHT22;8370;52.556;7.970;2024-01-07T14:58:51;1.00;99.90
16515;DHT22;8370;52.556;7.970;2024-01-07T15:01:16;1.00;99.90
16515;DHT22;8370;52.556;7.970;2024-01-07T15:03:43;0.90;99.90
16515;DHT22;8370;52.556;7.970;2024-01-07T15:06:09;0.90;99.90
16515;DHT22;8370;52.556;7.970;2024-01-07T15:08:35;0.90;99.90
16515;DHT22;8370;52.556;7.970;2024-01-07T15:11:01;0.80;99.90
16515;DHT22;8370;52.556;7.970;2024-01-07T15:13:26;0.80;99.90
16515;DHT22;8370;52.556;7.970;2024-01-07T15:15:53;0.90;99.90
16515;DHT22;8370;52.556;7.970;2024-01-07T15:18:18;0.80;99.90
16515;DHT22;8370;52.556;7.970;2024-01-07T15:20:44;0.80;99.90
16515;DHT22;8370;52.556;7.970;2024-01-07T15:23:09;0.70;99.90
16515;DHT22;8370;52.556;7.970;2024-01-07T15:25:35;0.60;99.90
16515;DHT22;8370;52.556;7.970;2024-01-07T15:28:00;0.60;99.90
16515;DHT22;8370;52.556;7.970;2024-01-07T15:30:26;0.50;99.90
16515;DHT22;8370;52.556;7.970;2024-01-07T15:32:51;0.50;99.90
16515;DHT22;8370;52.556;7.970;2024-01-07T15:35:17;0.40;99.90
16515;DHT22;8370;52.556;7.970;2024-01-07T15:37:42;0.30;99.90
16515;DHT22;8370;52.556;7.970;2024-01-07T15:40:08;0.30;99.90
16515;DHT22;8370;52.556;7.970;2024-01-07T15:42:34;0.30;99.90
16515;DHT22;8370;52.556;7.970;2024-01-07T15:44:59;0.30;99.90
16515;DHT22;8370;52.556;7.970;2024-01-07T15:47:25;0.20;99.90
16515;DHT22;8370;52.556;7.970;2024-01-07T15:49:52;0.20;99.90
16515;DHT22;8370;52.556;7.970;2024-01-07T15:52:18;0.20;99.90
16515;DHT22;8370;52.556;7.970;2024-01-07T15:54:43;0.20;99.90